Latest Weather Observations for Sheffield

IDT60801

Issued at 9:32 am EDT Thursday 30 March 2017 (issued every 30 minutes, with the page automatically refreshed every 10 minutes)

About weather observations | Map of weather stations | Latest weather observations for TAS | Other Formats
Station Details ID: 091291 Name: SHEFFIELD SCHOOL FARM Lat: -41.39 Lon: 146.32 Height: 294.2 m
Data from the previous 72 hours. | See also: Recent months at Sheffield
Date/Time
EDT
Temp
°C
App
Temp
°C
Dew
Point
°C
Rel
Hum
%
Delta-T
°C
Wind Press
QNH
hPa
Press
MSL
hPa
Rain since
9am
mm
Dir  Spd
km/h
Gust
km/h
Spd
kts
Gust
kts
30/09:30am 10.8 8.5 4.9 67 2.7 WNW 6 9 3 5 1012.2 1011.8 0.0
30/09:00am 9.6 6.7 4.4 70 2.3 W 9 17 5 9 1011.5 1011.2 7.8
30/08:30am 8.3 5.9 4.1 75 1.9 W 6 9 3 5 1011.1 1010.7 7.8
30/08:00am 7.3 5.6 4.1 80 1.4 NNW 2 6 1 3 1010.7 1010.3 7.8
30/07:30am 6.8 4.1 3.6 80 1.4 W 7 13 4 7 1010.3 1009.9 7.8
30/07:00am 7.4 3.3 4.4 81 1.3 WNW 15 20 8 11 1009.9 1009.5 7.8
30/06:30am 6.9 2.4 4.4 84 1.1 WNW 17 20 9 11 1009.5 1009.1 7.8
30/06:00am 6.3 3.3 4.0 85 1.0 WNW 9 15 5 8 1009.1 1008.7 7.8
30/05:30am 6.8 3.9 4.5 85 1.0 NW 9 11 5 6 1008.6 1008.1 7.8
30/05:00am 7.0 4.2 5.0 87 0.9 NNW 9 11 5 6 1008.5 1008.0 7.8
30/04:30am 6.8 4.4 4.5 85 1.0 NW 6 9 3 5 1007.9 1007.5 7.8
30/04:00am 7.2 4.3 4.9 85 1.0 NW 9 11 5 6 1008.2 1007.8 7.8
30/03:30am 7.7 5.2 5.0 83 1.2 NW 7 9 4 5 1008.2 1007.8 7.8
30/03:00am 7.8 4.6 4.9 82 1.3 W 11 15 6 8 1007.2 1006.8 7.8
30/02:30am 7.5 4.7 5.3 86 1.0 NW 9 13 5 7 1008.4 1007.9 7.8
30/02:00am 7.4 5.1 4.7 83 1.2 WNW 6 7 3 4 1007.6 1007.2 7.8
30/01:30am 8.5 6.7 5.4 81 1.4 W 4 6 2 3 1007.2 1006.8 7.8
30/01:00am 8.2 6.3 5.0 80 1.5 NNW 4 6 2 3 1007.9 1007.5 7.8
30/12:30am 8.5 6.5 4.5 76 1.8 W 4 6 2 3 1007.2 1006.8 7.8
30/12:00am 8.9 6.4 4.7 75 1.9 W 7 11 4 6 1006.8 1006.4 7.8
 
Date/Time
EDT
Temp
°C
App
Temp
°C
Dew
Point
°C
Rel
Hum
%
Delta-T
°C
Wind Press
QNH
hPa
Press
MSL
hPa
Rain since
9am
mm
Dir  Spd
km/h
Gust
km/h
Spd
kts
Gust
kts
29/11:30pm 9.1 5.8 4.5 73 2.1 W 11 17 6 9 1006.5 1006.1 7.8
29/11:00pm 9.4 4.6 4.4 71 2.3 W 19 28 10 15 1006.7 1006.3 7.8
29/10:30pm 9.5 4.1 4.3 70 2.3 W 22 30 12 16 1006.3 1005.9 7.8
29/10:00pm 9.4 5.3 4.6 72 2.2 W 15 22 8 12 1005.7 1005.3 7.8
29/09:30pm 9.4 6.2 5.2 75 1.9 WNW 11 17 6 9 1004.9 1004.4 7.8
29/09:00pm 9.5 6.2 4.7 72 2.2 W 11 20 6 11 1004.3 1003.9 7.8
29/08:30pm 9.4 3.7 5.0 74 2.0 WSW 24 37 13 20 1004.4 1004.0 7.8
29/08:00pm 10.0 2.7 4.4 68 2.5 WSW 32 50 17 27 1003.9 1003.5 7.8
29/07:30pm 10.3 2.8 4.7 68 2.6 SW 33 52 18 28 1002.7 1002.2 7.8
29/07:20pm 10.4 3.0 5.2 70 2.4 WSW 33 54 18 29 1002.4 1001.9 7.8
29/07:00pm 10.3 4.5 6.1 75 2.0 WSW 26 41 14 22 1001.8 1001.3 7.8
29/06:42pm 10.6 4.1 6.7 77 1.9 WSW 30 50 16 27 1001.5 1001.0 7.8
29/06:30pm 10.6 4.4 7.8 83 1.4 WSW 30 46 16 25 1001.4 1000.9 7.8
29/06:23pm 10.7 4.9 7.8 82 1.4 WSW 28 46 15 25 1001.3 1000.8 7.8
29/06:00pm 14.2 8.8 12.8 91 0.8 NW 33 44 18 24 1000.0 999.6 7.2
29/05:30pm 14.9 9.7 12.8 87 1.2 NNW 32 48 17 26 999.9 999.5 6.4
29/05:00pm 15.4 9.7 13.1 86 1.3 NNW 35 46 19 25 1000.0 999.6 6.4
29/04:30pm 14.7 9.4 12.6 87 1.2 NNW 32 50 17 27 1000.4 1000.0 6.4
29/04:24pm 15.3 10.9 12.8 85 1.4 NNW 28 50 15 27 1000.5 1000.1 6.4
29/04:00pm 16.4 12.6 13.7 84 1.6 NW 26 37 14 20 1000.7 1000.3 6.4
29/03:30pm 15.7 11.6 12.6 82 1.7 NW 26 35 14 19 1000.9 1000.5 6.4
29/03:00pm 15.6 11.4 13.6 88 1.1 NW 28 43 15 23 1001.1 1000.7 6.4
29/02:37pm 15.1 11.1 14.1 94 0.6 NNW 28 48 15 26 1001.0 1000.6 6.4
29/02:30pm 15.2 11.3 14.4 95 0.5 NNW 28 41 15 22 1001.3 1000.8 6.2
29/02:00pm 15.1 11.1 14.1 94 0.6 NNW 28 41 15 22 1001.9 1001.4 6.2
29/01:30pm 15.0 13.1 14.2 95 0.5 NW 17 24 9 13 1002.7 1002.2 5.0
29/01:00pm 14.3 12.5 13.3 94 0.6 NW 15 24 8 13 1003.2 1002.8 3.4
29/12:30pm 15.0 13.3 13.7 92 0.7 NW 15 22 8 12 1003.7 1003.3 0.6
29/12:00pm 14.8 11.6 13.2 90 0.9 NW 22 33 12 18 1004.2 1003.8 0.4
29/11:30am 14.6 11.3 12.8 89 1.0 NW 22 30 12 16 1004.6 1004.2 0.2
29/11:00am 14.9 11.9 12.6 86 1.3 NNW 20 35 11 19 1005.0 1004.5 0.2
29/10:30am 15.0 11.2 12.5 85 1.4 NNW 24 35 13 19 1005.3 1004.8 0.0
29/10:00am 14.9 10.7 12.4 85 1.4 NNW 26 35 14 19 1005.6 1005.1 0.0
29/09:30am 14.8 11.5 12.7 87 1.2 NNW 22 39 12 21 1005.8 1005.4 0.0
29/09:00am 14.7 10.7 12.9 89 1.0 NNW 26 37 14 20 1005.9 1005.5 1.2
29/08:30am 14.6 10.7 13.3 92 0.7 NNW 26 35 14 19 1006.1 1005.7 1.2
29/08:00am 14.5 12.2 13.0 91 0.8 NW 17 26 9 14 1006.0 1005.6 0.4
29/07:30am 14.4 13.0 12.1 86 1.3 NW 11 17 6 9 1006.1 1005.7 0.2
29/07:00am 14.4 12.7 11.2 81 1.7 NW 11 15 6 8 1006.1 1005.7 0.2
29/06:30am 14.4 11.2 11.2 81 1.7 NW 19 26 10 14 1006.4 1006.0 0.2
29/06:00am 14.1 10.9 11.8 86 1.3 NW 20 28 11 15 1006.6 1006.2 0.2
29/05:30am 13.3 10.6 11.7 90 0.9 NW 17 24 9 13 1006.6 1006.2 0.2
29/05:00am 13.4 11.3 11.3 87 1.1 NW 13 19 7 10 1006.7 1006.3 0.0
29/04:30am 13.1 11.3 10.8 86 1.2 NW 11 17 6 9 1006.9 1006.5 0.0
29/04:00am 13.5 11.0 11.2 86 1.2 NW 15 20 8 11 1007.1 1006.7 0.0
29/03:30am 12.9 11.5 11.0 88 1.0 NW 9 15 5 8 1007.4 1007.0 0.0
29/03:00am 13.3 10.5 11.2 87 1.1 NW 17 22 9 12 1007.8 1007.4 0.0
29/02:30am 13.3 9.4 10.8 85 1.3 WNW 22 37 12 20 1008.0 1007.6 0.0
29/02:00am 13.1 10.8 10.5 84 1.4 NW 13 22 7 12 1008.2 1007.8 0.0
29/01:30am 13.6 10.9 10.2 80 1.8 NW 15 22 8 12 1008.6 1008.1 0.0
29/01:00am 13.1 12.0 9.9 81 1.7 NNW 6 7 3 4 1008.9 1008.5 0.0
29/12:30am 13.5 11.8 9.9 79 1.9 WNW 9 15 5 8 1009.0 1008.6 0.0
29/12:00am 13.6 11.6 10.2 80 1.8 WNW 11 15 6 8 1009.2 1008.8 0.0
 
Date/Time
EDT
Temp
°C
App
Temp
°C
Dew
Point
°C
Rel
Hum
%
Delta-T
°C
Wind Press
QNH
hPa
Press
MSL
hPa
Rain since
9am
mm
Dir  Spd
km/h
Gust
km/h
Spd
kts
Gust
kts
28/11:30pm 13.4 11.0 10.2 81 1.7 NW 13 19 7 10 1009.4 1009.0 0.0
28/11:00pm 13.6 10.5 10.4 81 1.7 NW 17 22 9 12 1009.5 1009.1 0.0
28/10:30pm 13.5 10.3 10.1 80 1.8 NW 17 24 9 13 1009.7 1009.3 0.0
28/10:00pm 13.2 10.4 10.0 81 1.7 NW 15 22 8 12 1009.9 1009.5 0.0
28/09:30pm 14.0 11.4 9.4 74 2.4 NW 13 19 7 10 1009.7 1009.3 0.0
28/09:00pm 13.9 11.3 9.5 75 2.3 NW 13 17 7 9 1009.7 1009.3 0.0
28/08:30pm 14.4 10.3 8.8 69 2.9 WNW 20 26 11 14 1009.5 1009.1 0.0
28/08:00pm 14.4 10.7 9.4 72 2.6 NW 19 24 10 13 1009.1 1008.7 0.0
28/07:30pm 14.7 11.7 9.3 70 2.8 NW 15 22 8 12 1008.8 1008.4 0.0
28/07:00pm 14.9 11.1 9.1 68 3.0 NW 19 28 10 15 1008.8 1008.4 0.0
28/06:30pm 15.2 11.2 9.1 67 3.2 WNW 20 32 11 17 1008.7 1008.3 0.0
28/06:00pm 15.7 10.9 8.9 64 3.5 WNW 24 33 13 18 1008.5 1008.0 0.0
28/05:30pm 16.7 12.6 10.1 65 3.5 NW 22 32 12 17 1008.5 1008.0 0.0
28/05:00pm 16.4 12.2 9.6 64 3.6 WNW 22 33 12 18 1008.2 1007.8 0.0
28/04:30pm 16.7 12.5 9.9 64 3.6 WNW 22 33 12 18 1008.4 1007.9 0.0
28/04:00pm 16.9 13.2 11.4 70 3.0 WNW 22 35 12 19 1008.4 1007.9 0.0
28/03:30pm 16.7 13.7 10.8 68 3.2 NW 17 24 9 13 1008.6 1008.1 0.0
28/03:00pm 16.5 12.4 10.1 66 3.4 NW 22 32 12 17 1008.5 1008.0 0.0
28/02:30pm 16.6 12.8 11.1 70 3.0 NW 22 28 12 15 1008.8 1008.4 0.0
28/02:00pm 16.6 12.1 11.5 72 2.8 NW 26 35 14 19 1009.1 1008.7 0.0
28/01:30pm 16.6 13.8 11.3 71 2.9 WNW 17 26 9 14 1009.3 1008.9 0.0
28/01:00pm 15.6 11.4 11.0 74 2.5 WNW 24 35 13 19 1009.7 1009.3 0.0
28/12:30pm 15.4 12.1 11.0 75 2.4 NW 19 26 10 14 1010.1 1009.7 0.0
28/12:00pm 14.5 11.3 9.9 74 2.4 WNW 17 24 9 13 1010.5 1010.1 0.0
28/11:30am 14.1 12.3 10.7 80 1.8 NW 11 19 6 10 1010.5 1010.1 0.0
28/11:00am 13.9 11.3 10.7 81 1.7 NNW 15 20 8 11 1010.6 1010.2 0.0
28/10:30am 13.8 11.4 10.0 78 2.0 NW 13 19 7 10 1010.5 1010.1 0.0
28/10:00am 13.4 10.2 9.8 79 1.9 NW 17 32 9 17 1010.4 1010.0 0.0
28/09:30am 13.2 10.3 9.6 79 1.9 NNW 15 20 8 11 1010.1 1009.7 0.0
28/09:00am 12.9 10.4 9.7 81 1.7 NNW 13 19 7 10 1010.1 1009.7 6.0
28/08:30am 12.3 10.2 9.9 85 1.2 NNW 11 13 6 7 1009.8 1009.4 6.0
28/08:00am 11.4 9.3 9.8 90 0.8 NNW 11 17 6 9 1009.5 1009.1 6.0
28/07:30am 11.3 9.2 9.9 91 0.7 NNW 11 15 6 8 1009.3 1008.9 6.0
28/07:00am 11.0 9.2 9.3 89 0.9 NNW 9 11 5 6 1009.0 1008.6 6.0
28/06:30am 11.1 8.5 9.2 88 1.0 NNW 13 17 7 9 1008.7 1008.3 6.0
28/06:00am 11.4 8.0 9.1 86 1.2 NNW 17 22 9 12 1008.7 1008.3 6.0
28/05:30am 11.1 8.0 9.0 87 1.1 NNW 15 19 8 10 1008.4 1007.9 6.0
28/05:00am 10.9 8.2 9.0 88 1.0 NNW 13 19 7 10 1008.1 1007.7 6.0
28/04:30am 10.9 7.9 9.2 89 0.9 NNW 15 19 8 10 1007.9 1007.5 6.0
28/04:00am 11.2 7.7 8.9 86 1.2 NNW 17 20 9 11 1007.9 1007.5 6.0
28/03:30am 10.9 7.3 8.3 84 1.3 NNW 17 20 9 11 1007.7 1007.3 6.0
28/03:00am 10.8 7.5 8.0 83 1.4 NNW 15 19 8 10 1007.9 1007.5 6.0
28/02:30am 11.5 8.6 8.0 79 1.7 NW 13 19 7 10 1007.9 1007.5 6.0
28/02:00am 11.9 7.8 8.0 77 1.9 WNW 19 30 10 16 1008.0 1007.6 6.0
28/01:30am 11.8 6.4 7.9 77 1.9 WNW 26 35 14 19 1007.9 1007.5 6.0
28/01:00am 11.4 7.2 7.5 77 1.9 NW 19 22 10 12 1007.9 1007.5 6.0
28/12:30am 11.5 7.3 7.6 77 1.9 WNW 19 22 10 12 1007.3 1006.9 6.0
28/12:00am 11.9 8.1 7.4 74 2.2 NW 17 24 9 13 1007.5 1007.1 6.0
 
Date/Time
EDT
Temp
°C
App
Temp
°C
Dew
Point
°C
Rel
Hum
%
Delta-T
°C
Wind Press
QNH
hPa
Press
MSL
hPa
Rain since
9am
mm
Dir  Spd
km/h
Gust
km/h
Spd
kts
Gust
kts
27/11:30pm 12.3 8.1 7.6 73 2.3 NW 19 24 10 13 1007.5 1007.1 6.0
27/11:00pm 12.3 9.2 7.4 72 2.4 NW 13 20 7 11 1007.5 1007.1 6.0
27/10:30pm 12.7 9.2 7.2 69 2.7 WNW 15 28 8 15 1007.3 1006.9 6.0
27/10:00pm 12.9 7.8 7.6 70 2.6 WNW 24 39 13 21 1006.6 1006.2 6.0
27/09:30pm 13.2 7.2 7.0 66 3.0 WNW 28 44 15 24 1006.2 1005.8 6.0
27/09:05pm 13.6 6.9 7.4 66 3.1 WNW 32 50 17 27 1005.6 1005.1 6.0
27/09:00pm 13.6 7.0 7.8 68 2.9 WNW 32 44 17 24 1005.7 1005.3 6.0
27/08:30pm 13.9 10.2 9.5 75 2.3 WNW 19 32 10 17 1005.9 1005.5 6.0
27/08:00pm 14.1 10.3 9.9 76 2.2 WNW 20 32 11 17 1005.4 1004.9 6.0
27/07:30pm 13.8 10.5 9.6 76 2.2 NW 17 22 9 12 1005.0 1004.5 6.0
27/07:00pm 13.9 9.6 9.3 74 2.4 NW 22 32 12 17 1004.9 1004.4 6.0
27/06:30pm 14.4 8.8 8.6 68 3.0 WNW 28 37 15 20 1004.5 1004.1 6.0
27/06:02pm 14.9 9.3 8.8 67 3.1 WNW 28 46 15 25 1004.5 1004.1 6.0
27/06:00pm 15.0 9.0 8.7 66 3.3 WNW 30 46 16 25 1004.4 1004.0 6.0
27/05:39pm 15.0 9.4 8.9 67 3.2 WNW 28 50 15 27 1004.1 1003.7 6.0
27/05:30pm 14.9 9.3 8.8 67 3.1 WNW 28 41 15 22 1004.1 1003.7 6.0
27/05:00pm 14.5 10.7 9.7 73 2.5 WNW 20 32 11 17 1003.3 1002.9 6.0
27/04:30pm 13.3 8.0 9.7 79 1.9 WNW 28 43 15 23 1003.3 1002.9 6.0
27/04:16pm 13.3 7.1 9.9 80 1.8 WNW 33 54 18 29 1003.0 1002.6 6.0
27/04:00pm 13.2 8.9 10.7 85 1.3 WNW 24 37 13 20 1001.9 1001.4 6.0
27/03:30pm 13.7 8.7 10.9 83 1.5 WNW 28 39 15 21 1002.5 1002.0 4.2
27/03:01pm 15.4 10.1 11.2 76 2.3 WNW 30 48 16 26 1002.1 1001.6 3.4
27/03:00pm 15.5 9.8 11.1 75 2.4 WNW 32 48 17 26 1002.1 1001.6 3.4
27/02:32pm 16.6 11.2 12.9 79 2.1 WNW 33 54 18 29 1003.0 1002.6 3.4
27/02:30pm 16.6 10.9 12.9 79 2.1 WNW 35 52 19 28 1003.0 1002.6 3.4
27/02:15pm 17.0 10.1 14.5 85 1.5 WNW 44 85 24 46 1002.7 1002.2 3.4
27/02:11pm 17.1 10.5 14.9 87 1.3 WNW 43 85 23 46 1002.6 1002.1 3.4
27/02:07pm 17.7 13.9 16.6 93 0.7 NW 32 85 17 46 1002.2 1001.7 3.4
27/02:05pm 17.9 16.1 16.9 94 0.6 NW 22 65 12 35 1001.9 1001.4 3.2
27/02:00pm 18.0 16.8 17.0 94 0.6 NNW 19 24 10 13 1001.8 1001.3 2.2
27/01:30pm 18.3 18.3 17.3 94 0.6 NNW 13 19 7 10 1002.0 1001.5 2.2
27/01:00pm 17.8 20.3 17.2 96 0.4 CALM 0 2 0 1 1002.5 1002.0 2.2
27/12:30pm 17.5 19.1 17.0 97 0.3 SSE 4 6 2 3 1003.0 1002.6 2.2
27/12:00pm 17.2 18.1 16.6 96 0.4 SSE 7 9 4 5 1003.3 1002.9 2.2
27/11:30am 17.2 17.6 16.4 95 0.5 E 9 13 5 7 1003.3 1002.9 2.2
27/11:23am 17.4 18.4 16.4 94 0.6 E 6 11 3 6 1003.9 1003.5 1.8
27/11:00am 17.4 17.3 16.1 92 0.8 W 11 13 6 7 1006.0 1005.6 0.4
27/10:51am 17.7 18.4 16.2 91 0.9 SW 7 13 4 7 1006.1 1005.7 0.0
27/10:30am 17.6 17.8 15.8 89 1.1 SE 9 13 5 7 1004.0 1003.6 0.0
27/10:00am 17.2 17.3 15.5 90 1.0 SE 9 15 5 8 1004.7 1004.3 0.0

Other Formats:

Comma delimited format used in spreadsheet applications
http://www.bom.gov.au/fwo/IDT60801/IDT60801.94955.axf

JavaScript Object Notation format (JSON) in row-major order
http://www.bom.gov.au/fwo/IDT60801/IDT60801.94955.json